sensor_id;sensor_type;location;lat;lon;timestamp;temperature;humidity
2973;DHT22;1496;51.404;7.232;2023-12-20T00:01:29;7.10;99.90
2973;DHT22;1496;51.404;7.232;2023-12-20T00:03:55;7.00;99.90
2973;DHT22;1496;51.404;7.232;2023-12-20T00:06:20;7.00;99.90
2973;DHT22;1496;51.404;7.232;2023-12-20T00:08:47;7.00;99.90
2973;DHT22;1496;51.404;7.232;2023-12-20T00:11:13;7.10;99.90
2973;DHT22;1496;51.404;7.232;2023-12-20T00:13:41;7.10;99.90
2973;DHT22;1496;51.404;7.232;2023-12-20T00:16:07;7.10;99.90
2973;DHT22;1496;51.404;7.232;2023-12-20T00:18:33;7.20;99.90
2973;DHT22;1496;51.404;7.232;2023-12-20T00:20:58;7.20;99.90
2973;DHT22;1496;51.404;7.232;2023-12-20T00:23:24;7.20;99.90
2973;DHT22;1496;51.404;7.232;2023-12-20T00:25:50;7.10;99.90
2973;DHT22;1496;51.404;7.232;2023-12-20T00:28:15;7.10;99.90
2973;DHT22;1496;51.404;7.232;2023-12-20T00:30:41;7.10;99.90
2973;DHT22;1496;51.404;7.232;2023-12-20T00:33:07;7.10;99.90
2973;DHT22;1496;51.404;7.232;2023-12-20T00:35:33;7.20;99.90
2973;DHT22;1496;51.404;7.232;2023-12-20T00:37:58;7.10;99.90
2973;DHT22;1496;51.404;7.232;2023-12-20T00:40:25;7.00;99.90
2973;DHT22;1496;51.404;7.232;2023-12-20T00:42:51;6.90;99.90
2973;DHT22;1496;51.404;7.232;2023-12-20T00:45:18;6.90;99.90
2973;DHT22;1496;51.404;7.232;2023-12-20T00:47:44;6.90;99.90
2973;DHT22;1496;51.404;7.232;2023-12-20T00:50:10;6.80;99.90
2973;DHT22;1496;51.404;7.232;2023-12-20T00:52:38;6.80;99.90
2973;DHT22;1496;51.404;7.232;2023-12-20T00:55:04;6.80;99.90
2973;DHT22;1496;51.404;7.232;2023-12-20T00:57:30;6.80;99.90
2973;DHT22;1496;51.404;7.232;2023-12-20T00:59:57;6.80;99.90
2973;DHT22;1496;51.404;7.232;2023-12-20T01:02:23;6.80;99.90
2973;DHT22;1496;51.404;7.232;2023-12-20T01:04:49;6.80;99.90
2973;DHT22;1496;51.404;7.232;2023-12-20T01:07:14;6.90;99.90
2973;DHT22;1496;51.404;7.232;2023-12-20T01:09:40;6.90;99.90
2973;DHT22;1496;51.404;7.232;2023-12-20T01:12:06;6.90;99.90
2973;DHT22;1496;51.404;7.232;2023-12-20T01:14:31;6.80;99.90
2973;DHT22;1496;51.404;7.232;2023-12-20T01:16:57;6.80;99.90
2973;DHT22;1496;51.404;7.232;2023-12-20T01:19:24;6.90;99.90
2973;DHT22;1496;51.404;7.232;2023-12-20T01:21:50;6.80;99.90
2973;DHT22;1496;51.404;7.232;2023-12-20T01:24:15;6.80;99.90
2973;DHT22;1496;51.404;7.232;2023-12-20T01:26:41;6.70;99.90
2973;DHT22;1496;51.404;7.232;2023-12-20T01:29:07;6.80;99.90
2973;DHT22;1496;51.404;7.232;2023-12-20T01:31:33;6.70;99.90
2973;DHT22;1496;51.404;7.232;2023-12-20T01:33:58;6.60;99.90
2973;DHT22;1496;51.404;7.232;2023-12-20T01:36:24;6.50;99.90
2973;DHT22;1496;51.404;7.232;2023-12-20T01:38:50;6.50;99.90
2973;DHT22;1496;51.404;7.232;2023-12-20T01:41:16;6.50;99.90
2973;DHT22;1496;51.404;7.232;2023-12-20T01:43:42;6.50;99.90
2973;DHT22;1496;51.404;7.232;2023-12-20T01:46:08;6.40;99.90
2973;DHT22;1496;51.404;7.232;2023-12-20T01:48:34;6.50;99.90
2973;DHT22;1496;51.404;7.232;2023-12-20T01:51:02;6.50;99.90
2973;DHT22;1496;51.404;7.232;2023-12-20T01:53:28;6.40;99.90
2973;DHT22;1496;51.404;7.232;2023-12-20T01:55:55;6.30;99.90
2973;DHT22;1496;51.404;7.232;2023-12-20T01:58:23;6.30;99.90
2973;DHT22;1496;51.404;7.232;2023-12-20T02:00:49;6.30;99.90
2973;DHT22;1496;51.404;7.232;2023-12-20T02:03:16;6.30;99.90
2973;DHT22;1496;51.404;7.232;2023-12-20T02:05:42;6.40;99.90
2973;DHT22;1496;51.404;7.232;2023-12-20T02:08:08;6.30;99.90
2973;DHT22;1496;51.404;7.232;2023-12-20T02:10:34;6.40;99.90
2973;DHT22;1496;51.404;7.232;2023-12-20T02:12:59;6.30;99.90
2973;DHT22;1496;51.404;7.232;2023-12-20T02:15:25;6.40;99.90
2973;DHT22;1496;51.404;7.232;2023-12-20T02:17:51;6.40;99.90
2973;DHT22;1496;51.404;7.232;2023-12-20T02:20:17;6.30;99.90
2973;DHT22;1496;51.404;7.232;2023-12-20T02:22:43;6.30;99.90
2973;DHT22;1496;51.404;7.232;2023-12-20T02:25:08;6.30;99.90
2973;DHT22;1496;51.404;7.232;2023-12-20T02:27:34;6.20;99.90
2973;DHT22;1496;51.404;7.232;2023-12-20T02:30:01;6.20;99.90
2973;DHT22;1496;51.404;7.232;2023-12-20T02:32:26;6.10;99.90
2973;DHT22;1496;51.404;7.232;2023-12-20T02:34:53;6.10;99.90
2973;DHT22;1496;51.404;7.232;2023-12-20T02:37:19;6.10;99.90
2973;DHT22;1496;51.404;7.232;2023-12-20T02:39:45;6.10;99.90
2973;DHT22;1496;51.404;7.232;2023-12-20T02:42:11;6.00;99.90
2973;DHT22;1496;51.404;7.232;2023-12-20T02:44:37;5.90;99.90
2973;DHT22;1496;51.404;7.232;2023-12-20T02:47:03;5.80;99.90
2973;DHT22;1496;51.404;7.232;2023-12-20T02:49:29;5.80;99.90
2973;DHT22;1496;51.404;7.232;2023-12-20T02:51:54;5.80;99.90
2973;DHT22;1496;51.404;7.232;2023-12-20T02:54:20;5.80;99.90
2973;DHT22;1496;51.404;7.232;2023-12-20T02:56:45;5.90;99.90
2973;DHT22;1496;51.404;7.232;2023-12-20T02:59:11;5.90;99.90
2973;DHT22;1496;51.404;7.232;2023-12-20T03:01:44;5.90;99.90
2973;DHT22;1496;51.404;7.232;2023-12-20T03:04:10;5.90;99.90
2973;DHT22;1496;51.404;7.232;2023-12-20T03:06:36;5.80;99.90
2973;DHT22;1496;51.404;7.232;2023-12-20T03:09:02;5.80;99.90
2973;DHT22;1496;51.404;7.232;2023-12-20T03:11:28;5.80;99.90
2973;DHT22;1496;51.404;7.232;2023-12-20T03:13:55;5.80;99.90
2973;DHT22;1496;51.404;7.232;2023-12-20T03:16:21;5.90;99.90
2973;DHT22;1496;51.404;7.232;2023-12-20T03:18:46;5.90;99.90
2973;DHT22;1496;51.404;7.232;2023-12-20T03:21:12;5.90;99.90
2973;DHT22;1496;51.404;7.232;2023-12-20T03:23:38;5.80;99.90
2973;DHT22;1496;51.404;7.232;2023-12-20T03:26:07;5.80;99.90
2973;DHT22;1496;51.404;7.232;2023-12-20T03:28:32;5.80;99.90
2973;DHT22;1496;51.404;7.232;2023-12-20T03:30:59;5.80;99.90
2973;DHT22;1496;51.404;7.232;2023-12-20T03:33:29;5.90;99.90
2973;DHT22;1496;51.404;7.232;2023-12-20T03:35:54;5.90;99.90
2973;DHT22;1496;51.404;7.232;2023-12-20T03:38:21;5.80;99.90
2973;DHT22;1496;51.404;7.232;2023-12-20T03:40:46;5.80;99.90
2973;DHT22;1496;51.404;7.232;2023-12-20T03:43:12;5.90;99.90
2973;DHT22;1496;51.404;7.232;2023-12-20T03:45:38;5.80;99.90
2973;DHT22;1496;51.404;7.232;2023-12-20T03:48:04;5.80;99.90
2973;DHT22;1496;51.404;7.232;2023-12-20T03:50:30;5.70;99.90
2973;DHT22;1496;51.404;7.232;2023-12-20T03:52:55;5.60;99.90
2973;DHT22;1496;51.404;7.232;2023-12-20T03:55:21;5.50;99.90
2973;DHT22;1496;51.404;7.232;2023-12-20T03:57:47;5.50;99.90
2973;DHT22;1496;51.404;7.232;2023-12-20T04:00:12;5.40;99.90
2973;DHT22;1496;51.404;7.232;2023-12-20T04:02:39;5.40;99.90
2973;DHT22;1496;51.404;7.232;2023-12-20T04:05:05;5.40;99.90
2973;DHT22;1496;51.404;7.232;2023-12-20T04:07:31;5.50;99.90
2973;DHT22;1496;51.404;7.232;2023-12-20T04:09:57;5.50;99.90
2973;DHT22;1496;51.404;7.232;2023-12-20T04:12:23;5.50;99.90
2973;DHT22;1496;51.404;7.232;2023-12-20T04:14:48;5.40;99.90
2973;DHT22;1496;51.404;7.232;2023-12-20T04:17:15;5.50;99.90
2973;DHT22;1496;51.404;7.232;2023-12-20T04:19:42;5.40;99.90
2973;DHT22;1496;51.404;7.232;2023-12-20T04:22:08;5.40;99.90
2973;DHT22;1496;51.404;7.232;2023-12-20T04:24:34;5.40;99.90
2973;DHT22;1496;51.404;7.232;2023-12-20T04:27:00;5.50;99.90
2973;DHT22;1496;51.404;7.232;2023-12-20T04:29:26;5.50;99.90
2973;DHT22;1496;51.404;7.232;2023-12-20T04:31:51;5.40;99.90
2973;DHT22;1496;51.404;7.232;2023-12-20T04:34:18;5.40;99.90
2973;DHT22;1496;51.404;7.232;2023-12-20T04:36:44;5.50;99.90
2973;DHT22;1496;51.404;7.232;2023-12-20T04:39:11;5.50;99.90
2973;DHT22;1496;51.404;7.232;2023-12-20T04:41:37;5.50;99.90
2973;DHT22;1496;51.404;7.232;2023-12-20T04:44:02;5.50;99.90
2973;DHT22;1496;51.404;7.232;2023-12-20T04:46:28;5.50;99.90
2973;DHT22;1496;51.404;7.232;2023-12-20T04:49:02;5.50;99.90
2973;DHT22;1496;51.404;7.232;2023-12-20T04:51:28;5.50;99.90
2973;DHT22;1496;51.404;7.232;2023-12-20T04:53:54;5.40;99.90
2973;DHT22;1496;51.404;7.232;2023-12-20T04:56:19;5.40;99.90
2973;DHT22;1496;51.404;7.232;2023-12-20T04:58:45;5.40;99.90
2973;DHT22;1496;51.404;7.232;2023-12-20T05:01:11;5.40;99.90
2973;DHT22;1496;51.404;7.232;2023-12-20T05:03:37;5.40;99.90
2973;DHT22;1496;51.404;7.232;2023-12-20T05:06:03;5.40;99.90
2973;DHT22;1496;51.404;7.232;2023-12-20T05:08:29;5.40;99.90
2973;DHT22;1496;51.404;7.232;2023-12-20T05:10:55;5.40;99.90
2973;DHT22;1496;51.404;7.232;2023-12-20T05:13:21;5.40;99.90
2973;DHT22;1496;51.404;7.232;2023-12-20T05:15:47;5.40;99.90
2973;DHT22;1496;51.404;7.232;2023-12-20T05:18:13;5.40;99.90
2973;DHT22;1496;51.404;7.232;2023-12-20T05:20:39;5.50;99.90
2973;DHT22;1496;51.404;7.232;2023-12-20T05:23:05;5.50;99.90
2973;DHT22;1496;51.404;7.232;2023-12-20T05:25:31;5.50;99.90
2973;DHT22;1496;51.404;7.232;2023-12-20T05:27:57;5.50;99.90
2973;DHT22;1496;51.404;7.232;2023-12-20T05:30:23;5.40;99.90
2973;DHT22;1496;51.404;7.232;2023-12-20T05:32:48;5.40;99.90
2973;DHT22;1496;51.404;7.232;2023-12-20T05:35:14;5.50;99.90
2973;DHT22;1496;51.404;7.232;2023-12-20T05:37:41;5.40;99.90
2973;DHT22;1496;51.404;7.232;2023-12-20T05:40:07;5.40;99.90
2973;DHT22;1496;51.404;7.232;2023-12-20T05:42:36;5.40;99.90
2973;DHT22;1496;51.404;7.232;2023-12-20T05:45:02;5.30;99.90
2973;DHT22;1496;51.404;7.232;2023-12-20T05:47:28;5.20;99.90
2973;DHT22;1496;51.404;7.232;2023-12-20T05:49:53;5.20;99.90
2973;DHT22;1496;51.404;7.232;2023-12-20T05:52:19;5.20;99.90
2973;DHT22;1496;51.404;7.232;2023-12-20T05:54:45;5.30;99.90
2973;DHT22;1496;51.404;7.232;2023-12-20T05:57:10;5.30;99.90
2973;DHT22;1496;51.404;7.232;2023-12-20T05:59:36;5.30;99.90
2973;DHT22;1496;51.404;7.232;2023-12-20T06:02:03;5.30;99.90
2973;DHT22;1496;51.404;7.232;2023-12-20T06:04:29;5.30;99.90
2973;DHT22;1496;51.404;7.232;2023-12-20T06:06:55;5.30;99.90
2973;DHT22;1496;51.404;7.232;2023-12-20T06:09:21;5.30;99.90
2973;DHT22;1496;51.404;7.232;2023-12-20T06:11:46;5.30;99.90
2973;DHT22;1496;51.404;7.232;2023-12-20T06:14:12;5.30;99.90
2973;DHT22;1496;51.404;7.232;2023-12-20T06:16:37;5.40;99.90
2973;DHT22;1496;51.404;7.232;2023-12-20T06:19:03;5.40;99.90
2973;DHT22;1496;51.404;7.232;2023-12-20T06:21:29;5.40;99.90
2973;DHT22;1496;51.404;7.232;2023-12-20T06:23:55;5.50;99.90
2973;DHT22;1496;51.404;7.232;2023-12-20T06:26:21;5.50;99.90
2973;DHT22;1496;51.404;7.232;2023-12-20T06:28:46;5.50;99.90
2973;DHT22;1496;51.404;7.232;2023-12-20T06:31:12;5.50;99.90
2973;DHT22;1496;51.404;7.232;2023-12-20T06:33:38;5.50;99.90
2973;DHT22;1496;51.404;7.232;2023-12-20T06:36:06;5.50;99.90
2973;DHT22;1496;51.404;7.232;2023-12-20T06:38:31;5.50;99.90
2973;DHT22;1496;51.404;7.232;2023-12-20T06:40:57;5.60;99.90
2973;DHT22;1496;51.404;7.232;2023-12-20T06:43:24;5.60;99.90
2973;DHT22;1496;51.404;7.232;2023-12-20T06:45:50;5.50;99.90
2973;DHT22;1496;51.404;7.232;2023-12-20T06:48:16;5.60;99.90
2973;DHT22;1496;51.404;7.232;2023-12-20T06:50:42;5.50;99.90
2973;DHT22;1496;51.404;7.232;2023-12-20T06:53:08;5.50;99.90
2973;DHT22;1496;51.404;7.232;2023-12-20T06:55:35;5.40;99.90
2973;DHT22;1496;51.404;7.232;2023-12-20T06:58:02;5.40;99.90
2973;DHT22;1496;51.404;7.232;2023-12-20T07:00:27;5.50;99.90
2973;DHT22;1496;51.404;7.232;2023-12-20T07:02:54;5.50;99.90
2973;DHT22;1496;51.404;7.232;2023-12-20T07:05:19;5.50;99.90
2973;DHT22;1496;51.404;7.232;2023-12-20T07:07:46;5.50;99.90
2973;DHT22;1496;51.404;7.232;2023-12-20T07:10:13;5.50;99.90
2973;DHT22;1496;51.404;7.232;2023-12-20T07:12:39;5.50;99.90
2973;DHT22;1496;51.404;7.232;2023-12-20T07:15:05;5.50;99.90
2973;DHT22;1496;51.404;7.232;2023-12-20T07:17:32;5.50;99.90
2973;DHT22;1496;51.404;7.232;2023-12-20T07:19:58;5.50;99.90
2973;DHT22;1496;51.404;7.232;2023-12-20T07:22:24;5.50;99.90
2973;DHT22;1496;51.404;7.232;2023-12-20T07:24:50;5.60;99.90
2973;DHT22;1496;51.404;7.232;2023-12-20T07:27:18;5.60;99.90
2973;DHT22;1496;51.404;7.232;2023-12-20T07:29:43;5.60;99.90
2973;DHT22;1496;51.404;7.232;2023-12-20T07:32:09;5.70;99.90
2973;DHT22;1496;51.404;7.232;2023-12-20T07:34:35;5.70;99.90
2973;DHT22;1496;51.404;7.232;2023-12-20T07:37:00;5.70;99.90
2973;DHT22;1496;51.404;7.232;2023-12-20T07:39:28;5.70;99.90
2973;DHT22;1496;51.404;7.232;2023-12-20T07:41:56;5.70;99.90
2973;DHT22;1496;51.404;7.232;2023-12-20T07:44:22;5.70;99.90
2973;DHT22;1496;51.404;7.232;2023-12-20T07:46:47;5.70;99.90
2973;DHT22;1496;51.404;7.232;2023-12-20T07:49:14;5.70;99.90
2973;DHT22;1496;51.404;7.232;2023-12-20T07:51:39;5.70;99.90
2973;DHT22;1496;51.404;7.232;2023-12-20T07:54:05;5.60;99.90
2973;DHT22;1496;51.404;7.232;2023-12-20T07:56:31;5.70;99.90
2973;DHT22;1496;51.404;7.232;2023-12-20T07:58:56;5.60;99.90
2973;DHT22;1496;51.404;7.232;2023-12-20T08:01:22;5.70;99.90
2973;DHT22;1496;51.404;7.232;2023-12-20T08:03:49;5.60;99.90
2973;DHT22;1496;51.404;7.232;2023-12-20T08:06:14;5.60;99.90
2973;DHT22;1496;51.404;7.232;2023-12-20T08:08:42;5.70;99.90
2973;DHT22;1496;51.404;7.232;2023-12-20T08:11:08;5.70;99.90
2973;DHT22;1496;51.404;7.232;2023-12-20T08:13:33;5.70;99.90
2973;DHT22;1496;51.404;7.232;2023-12-20T08:15:59;5.70;99.90
2973;DHT22;1496;51.404;7.232;2023-12-20T08:18:25;5.70;99.90
2973;DHT22;1496;51.404;7.232;2023-12-20T08:20:50;5.70;99.90
2973;DHT22;1496;51.404;7.232;2023-12-20T08:23:19;5.70;99.90
2973;DHT22;1496;51.404;7.232;2023-12-20T08:25:46;5.70;99.90
2973;DHT22;1496;51.404;7.232;2023-12-20T08:28:12;5.70;99.90
2973;DHT22;1496;51.404;7.232;2023-12-20T08:30:38;5.80;99.90
2973;DHT22;1496;51.404;7.232;2023-12-20T08:33:04;5.80;99.90
2973;DHT22;1496;51.404;7.232;2023-12-20T08:35:30;5.80;99.90
2973;DHT22;1496;51.404;7.232;2023-12-20T08:37:56;5.80;99.90
2973;DHT22;1496;51.404;7.232;2023-12-20T08:40:22;5.80;99.90
2973;DHT22;1496;51.404;7.232;2023-12-20T08:42:47;5.90;99.90
2973;DHT22;1496;51.404;7.232;2023-12-20T08:45:13;5.90;99.90
2973;DHT22;1496;51.404;7.232;2023-12-20T08:47:42;5.90;99.90
2973;DHT22;1496;51.404;7.232;2023-12-20T08:50:10;5.90;99.90
2973;DHT22;1496;51.404;7.232;2023-12-20T08:52:35;5.90;99.90
2973;DHT22;1496;51.404;7.232;2023-12-20T08:55:01;5.90;99.90
2973;DHT22;1496;51.404;7.232;2023-12-20T08:57:27;5.80;99.90
2973;DHT22;1496;51.404;7.232;2023-12-20T08:59:53;5.80;99.90
2973;DHT22;1496;51.404;7.232;2023-12-20T09:02:19;5.70;99.90
2973;DHT22;1496;51.404;7.232;2023-12-20T09:04:44;5.80;99.90
2973;DHT22;1496;51.404;7.232;2023-12-20T09:07:26;5.80;99.90
2973;DHT22;1496;51.404;7.232;2023-12-20T09:09:53;5.80;99.90
2973;DHT22;1496;51.404;7.232;2023-12-20T09:12:19;5.80;99.90
2973;DHT22;1496;51.404;7.232;2023-12-20T09:14:50;5.80;99.90
2973;DHT22;1496;51.404;7.232;2023-12-20T09:17:17;5.80;99.90
2973;DHT22;1496;51.404;7.232;2023-12-20T09:19:44;5.80;99.90
2973;DHT22;1496;51.404;7.232;2023-12-20T09:22:10;5.80;99.90
2973;DHT22;1496;51.404;7.232;2023-12-20T09:24:36;5.80;99.90
2973;DHT22;1496;51.404;7.232;2023-12-20T09:27:02;5.90;99.90
2973;DHT22;1496;51.404;7.232;2023-12-20T09:29:28;5.90;99.90
2973;DHT22;1496;51.404;7.232;2023-12-20T09:31:54;6.00;99.90
2973;DHT22;1496;51.404;7.232;2023-12-20T09:34:19;6.00;99.90
2973;DHT22;1496;51.404;7.232;2023-12-20T09:36:45;6.00;99.90
2973;DHT22;1496;51.404;7.232;2023-12-20T09:39:19;6.00;99.90
2973;DHT22;1496;51.404;7.232;2023-12-20T09:42:02;6.00;99.90
2973;DHT22;1496;51.404;7.232;2023-12-20T09:44:28;6.00;99.90
2973;DHT22;1496;51.404;7.232;2023-12-20T09:46:55;6.00;99.90
2973;DHT22;1496;51.404;7.232;2023-12-20T09:49:22;6.10;99.90
2973;DHT22;1496;51.404;7.232;2023-12-20T09:51:50;6.00;99.90
2973;DHT22;1496;51.404;7.232;2023-12-20T09:54:17;6.00;99.90
2973;DHT22;1496;51.404;7.232;2023-12-20T09:56:50;6.10;99.90
2973;DHT22;1496;51.404;7.232;2023-12-20T09:59:16;6.10;99.90
2973;DHT22;1496;51.404;7.232;2023-12-20T10:01:42;6.10;99.90
2973;DHT22;1496;51.404;7.232;2023-12-20T10:04:10;6.00;99.90
2973;DHT22;1496;51.404;7.232;2023-12-20T10:06:44;6.00;99.90
2973;DHT22;1496;51.404;7.232;2023-12-20T10:09:11;5.90;99.90
2973;DHT22;1496;51.404;7.232;2023-12-20T10:11:37;5.90;99.90
2973;DHT22;1496;51.404;7.232;2023-12-20T10:14:03;5.90;99.90
2973;DHT22;1496;51.404;7.232;2023-12-20T10:16:30;5.90;99.90
2973;DHT22;1496;51.404;7.232;2023-12-20T10:18:56;5.90;99.90
2973;DHT22;1496;51.404;7.232;2023-12-20T10:21:25;5.90;99.90
2973;DHT22;1496;51.404;7.232;2023-12-20T10:23:55;5.90;99.90
2973;DHT22;1496;51.404;7.232;2023-12-20T10:26:25;6.00;99.90
2973;DHT22;1496;51.404;7.232;2023-12-20T10:28:53;6.00;99.90
2973;DHT22;1496;51.404;7.232;2023-12-20T10:31:30;6.00;99.90
2973;DHT22;1496;51.404;7.232;2023-12-20T10:34:00;6.00;99.90
2973;DHT22;1496;51.404;7.232;2023-12-20T10:36:27;5.90;99.90
2973;DHT22;1496;51.404;7.232;2023-12-20T10:38:53;6.00;99.90
2973;DHT22;1496;51.404;7.232;2023-12-20T10:43:51;6.10;99.90
2973;DHT22;1496;51.404;7.232;2023-12-20T10:46:19;6.10;99.90
2973;DHT22;1496;51.404;7.232;2023-12-20T10:48:46;6.10;99.90
2973;DHT22;1496;51.404;7.232;2023-12-20T10:51:15;6.10;99.90
2973;DHT22;1496;51.404;7.232;2023-12-20T10:53:43;6.10;99.90
2973;DHT22;1496;51.404;7.232;2023-12-20T10:56:12;6.20;99.90
2973;DHT22;1496;51.404;7.232;2023-12-20T10:58:42;6.20;99.90
2973;DHT22;1496;51.404;7.232;2023-12-20T11:01:13;6.20;99.90
2973;DHT22;1496;51.404;7.232;2023-12-20T11:03:51;6.20;99.90
2973;DHT22;1496;51.404;7.232;2023-12-20T11:14:35;6.00;99.90
2973;DHT22;1496;51.404;7.232;2023-12-20T11:17:10;6.00;99.90
2973;DHT22;1496;51.404;7.232;2023-12-20T11:22:26;6.00;99.90
2973;DHT22;1496;51.404;7.232;2023-12-20T11:24:52;6.00;99.90
2973;DHT22;1496;51.404;7.232;2023-12-20T11:27:19;6.00;99.90
2973;DHT22;1496;51.404;7.232;2023-12-20T11:29:56;6.00;99.90
2973;DHT22;1496;51.404;7.232;2023-12-20T11:32:28;6.00;99.90
2973;DHT22;1496;51.404;7.232;2023-12-20T11:34:56;6.00;99.90
2973;DHT22;1496;51.404;7.232;2023-12-20T11:37:25;6.00;99.90
2973;DHT22;1496;51.404;7.232;2023-12-20T11:39:55;6.00;99.90
2973;DHT22;1496;51.404;7.232;2023-12-20T11:42:22;6.00;99.90
2973;DHT22;1496;51.404;7.232;2023-12-20T11:44:48;6.00;99.90
2973;DHT22;1496;51.404;7.232;2023-12-20T11:47:13;6.00;99.90
2973;DHT22;1496;51.404;7.232;2023-12-20T11:49:41;6.20;99.90
2973;DHT22;1496;51.404;7.232;2023-12-20T11:52:07;6.20;99.90
2973;DHT22;1496;51.404;7.232;2023-12-20T11:54:32;6.20;99.90
2973;DHT22;1496;51.404;7.232;2023-12-20T11:56:58;6.20;99.90
2973;DHT22;1496;51.404;7.232;2023-12-20T11:59:24;6.20;99.90
2973;DHT22;1496;51.404;7.232;2023-12-20T12:01:50;6.20;99.90
2973;DHT22;1496;51.404;7.232;2023-12-20T12:04:16;6.20;99.90
2973;DHT22;1496;51.404;7.232;2023-12-20T12:06:44;6.20;99.90
2973;DHT22;1496;51.404;7.232;2023-12-20T12:09:10;6.20;99.90
2973;DHT22;1496;51.404;7.232;2023-12-20T12:11:36;6.20;99.90
2973;DHT22;1496;51.404;7.232;2023-12-20T12:14:01;6.20;99.90
2973;DHT22;1496;51.404;7.232;2023-12-20T12:16:27;6.10;99.90
2973;DHT22;1496;51.404;7.232;2023-12-20T12:18:57;6.00;99.90
2973;DHT22;1496;51.404;7.232;2023-12-20T12:21:23;6.10;99.90
2973;DHT22;1496;51.404;7.232;2023-12-20T12:23:49;6.00;99.90
2973;DHT22;1496;51.404;7.232;2023-12-20T12:26:15;6.00;99.90
2973;DHT22;1496;51.404;7.232;2023-12-20T12:28:41;6.00;99.90
2973;DHT22;1496;51.404;7.232;2023-12-20T12:31:09;6.00;99.90
2973;DHT22;1496;51.404;7.232;2023-12-20T12:33:39;6.10;99.90
2973;DHT22;1496;51.404;7.232;2023-12-20T12:36:07;6.10;99.90
2973;DHT22;1496;51.404;7.232;2023-12-20T12:38:33;6.10;99.90
2973;DHT22;1496;51.404;7.232;2023-12-20T12:41:00;6.10;99.90
2973;DHT22;1496;51.404;7.232;2023-12-20T12:43:26;6.20;99.90
2973;DHT22;1496;51.404;7.232;2023-12-20T12:45:52;6.20;99.90
2973;DHT22;1496;51.404;7.232;2023-12-20T12:48:18;6.20;99.90
2973;DHT22;1496;51.404;7.232;2023-12-20T12:50:45;6.20;99.90
2973;DHT22;1496;51.404;7.232;2023-12-20T12:53:10;6.20;99.90
2973;DHT22;1496;51.404;7.232;2023-12-20T12:55:36;6.30;99.90
2973;DHT22;1496;51.404;7.232;2023-12-20T12:58:02;6.30;99.90
2973;DHT22;1496;51.404;7.232;2023-12-20T13:00:27;6.30;99.90
2973;DHT22;1496;51.404;7.232;2023-12-20T13:02:53;6.40;99.90
2973;DHT22;1496;51.404;7.232;2023-12-20T13:05:18;6.40;99.90
2973;DHT22;1496;51.404;7.232;2023-12-20T13:07:44;6.40;99.90
2973;DHT22;1496;51.404;7.232;2023-12-20T13:10:13;6.40;99.90
2973;DHT22;1496;51.404;7.232;2023-12-20T13:12:42;6.40;99.90
2973;DHT22;1496;51.404;7.232;2023-12-20T13:15:08;6.40;99.90
2973;DHT22;1496;51.404;7.232;2023-12-20T13:17:34;6.40;99.90
2973;DHT22;1496;51.404;7.232;2023-12-20T13:20:00;6.40;99.90
2973;DHT22;1496;51.404;7.232;2023-12-20T13:22:26;6.40;99.90
2973;DHT22;1496;51.404;7.232;2023-12-20T13:24:52;6.40;99.90
2973;DHT22;1496;51.404;7.232;2023-12-20T13:27:17;6.30;99.90
2973;DHT22;1496;51.404;7.232;2023-12-20T13:29:43;6.20;99.90
2973;DHT22;1496;51.404;7.232;2023-12-20T13:32:09;6.20;99.90
2973;DHT22;1496;51.404;7.232;2023-12-20T13:34:34;6.20;99.90
2973;DHT22;1496;51.404;7.232;2023-12-20T13:37:00;6.30;99.90
2973;DHT22;1496;51.404;7.232;2023-12-20T13:39:26;6.30;99.90
2973;DHT22;1496;51.404;7.232;2023-12-20T13:41:52;6.30;99.90
2973;DHT22;1496;51.404;7.232;2023-12-20T13:44:17;6.20;99.90
2973;DHT22;1496;51.404;7.232;2023-12-20T13:46:43;6.20;99.90
2973;DHT22;1496;51.404;7.232;2023-12-20T13:49:09;6.20;99.90
2973;DHT22;1496;51.404;7.232;2023-12-20T13:51:34;6.20;99.90
2973;DHT22;1496;51.404;7.232;2023-12-20T13:54:00;6.20;99.90
2973;DHT22;1496;51.404;7.232;2023-12-20T13:56:26;6.10;99.90
2973;DHT22;1496;51.404;7.232;2023-12-20T13:58:51;6.20;99.90
2973;DHT22;1496;51.404;7.232;2023-12-20T14:01:17;6.20;99.90
2973;DHT22;1496;51.404;7.232;2023-12-20T14:03:43;6.20;99.90
2973;DHT22;1496;51.404;7.232;2023-12-20T14:06:08;6.20;99.90
2973;DHT22;1496;51.404;7.232;2023-12-20T14:08:34;6.20;99.90
2973;DHT22;1496;51.404;7.232;2023-12-20T14:11:01;6.20;99.90
2973;DHT22;1496;51.404;7.232;2023-12-20T14:13:27;6.20;99.90
2973;DHT22;1496;51.404;7.232;2023-12-20T14:15:53;6.20;99.90
2973;DHT22;1496;51.404;7.232;2023-12-20T14:18:20;6.20;99.90
2973;DHT22;1496;51.404;7.232;2023-12-20T14:20:47;6.20;99.90
2973;DHT22;1496;51.404;7.232;2023-12-20T14:23:13;6.30;99.90
2973;DHT22;1496;51.404;7.232;2023-12-20T14:25:42;6.30;99.90
2973;DHT22;1496;51.404;7.232;2023-12-20T14:28:08;6.30;99.90
2973;DHT22;1496;51.404;7.232;2023-12-20T14:30:35;6.30;99.90
2973;DHT22;1496;51.404;7.232;2023-12-20T14:33:04;6.30;99.90
2973;DHT22;1496;51.404;7.232;2023-12-20T14:35:30;6.20;99.90
2973;DHT22;1496;51.404;7.232;2023-12-20T14:37:55;6.20;99.90
2973;DHT22;1496;51.404;7.232;2023-12-20T14:40:22;6.20;99.90
2973;DHT22;1496;51.404;7.232;2023-12-20T14:42:47;6.10;99.90
2973;DHT22;1496;51.404;7.232;2023-12-20T14:45:14;6.10;99.90
2973;DHT22;1496;51.404;7.232;2023-12-20T14:47:41;6.10;99.90
2973;DHT22;1496;51.404;7.232;2023-12-20T14:50:07;6.20;99.90
2973;DHT22;1496;51.404;7.232;2023-12-20T14:52:34;6.20;99.90
2973;DHT22;1496;51.404;7.232;2023-12-20T14:55:00;6.10;99.90
2973;DHT22;1496;51.404;7.232;2023-12-20T14:57:26;6.20;99.90
2973;DHT22;1496;51.404;7.232;2023-12-20T14:59:52;6.20;99.90
2973;DHT22;1496;51.404;7.232;2023-12-20T15:02:18;6.20;99.90
2973;DHT22;1496;51.404;7.232;2023-12-20T15:04:44;6.20;99.90
2973;DHT22;1496;51.404;7.232;2023-12-20T15:07:10;6.20;99.90
2973;DHT22;1496;51.404;7.232;2023-12-20T15:09:36;6.20;99.90
2973;DHT22;1496;51.404;7.232;2023-12-20T15:12:02;6.20;99.90
2973;DHT22;1496;51.404;7.232;2023-12-20T15:14:27;6.20;99.90
2973;DHT22;1496;51.404;7.232;2023-12-20T15:17:17;6.30;99.90
2973;DHT22;1496;51.404;7.232;2023-12-20T15:19:51;6.20;99.90
2973;DHT22;1496;51.404;7.232;2023-12-20T15:22:17;6.30;99.90
2973;DHT22;1496;51.404;7.232;2023-12-20T15:24:42;6.30;99.90
2973;DHT22;1496;51.404;7.232;2023-12-20T15:27:09;6.30;99.90
2973;DHT22;1496;51.404;7.232;2023-12-20T15:29:35;6.40;99.90
2973;DHT22;1496;51.404;7.232;2023-12-20T15:32:02;6.40;99.90
2973;DHT22;1496;51.404;7.232;2023-12-20T15:34:29;6.40;99.90
2973;DHT22;1496;51.404;7.232;2023-12-20T15:36:55;6.50;99.90
2973;DHT22;1496;51.404;7.232;2023-12-20T15:39:21;6.50;99.90
2973;DHT22;1496;51.404;7.232;2023-12-20T15:41:47;6.50;99.90
2973;DHT22;1496;51.404;7.232;2023-12-20T15:44:13;6.50;99.90
2973;DHT22;1496;51.404;7.232;2023-12-20T15:46:41;6.60;99.90
2973;DHT22;1496;51.404;7.232;2023-12-20T15:49:07;6.50;99.90
2973;DHT22;1496;51.404;7.232;2023-12-20T15:51:32;6.60;99.90
2973;DHT22;1496;51.404;7.232;2023-12-20T15:54:00;6.50;99.90
2973;DHT22;1496;51.404;7.232;2023-12-20T15:56:34;6.50;99.90
2973;DHT22;1496;51.404;7.232;2023-12-20T15:59:02;6.60;99.90
2973;DHT22;1496;51.404;7.232;2023-12-20T16:01:29;6.60;99.90
2973;DHT22;1496;51.404;7.232;2023-12-20T16:03:55;6.60;99.90
2973;DHT22;1496;51.404;7.232;2023-12-20T16:06:20;6.50;99.90
2973;DHT22;1496;51.404;7.232;2023-12-20T16:08:46;6.50;99.90
2973;DHT22;1496;51.404;7.232;2023-12-20T16:11:12;6.50;99.90
2973;DHT22;1496;51.404;7.232;2023-12-20T16:13:38;6.50;99.90
2973;DHT22;1496;51.404;7.232;2023-12-20T16:16:04;6.50;99.90
2973;DHT22;1496;51.404;7.232;2023-12-20T16:18:30;6.60;99.90
2973;DHT22;1496;51.404;7.232;2023-12-20T16:20:56;6.60;99.90
2973;DHT22;1496;51.404;7.232;2023-12-20T16:23:23;6.60;99.90
2973;DHT22;1496;51.404;7.232;2023-12-20T16:25:49;6.60;99.90